createdAt,value
2023-02-25T00:02:18.198Z,7.66
2023-02-25T00:04:47.193Z,7.24
2023-02-25T00:07:18.155Z,7.38
2023-02-25T00:09:48.150Z,7.48
2023-02-25T00:12:17.311Z,7.48
2023-02-25T00:14:46.004Z,7.38
2023-02-25T00:17:16.689Z,7.25
2023-02-25T00:19:45.847Z,7.51
2023-02-25T00:22:14.460Z,7.30
2023-02-25T00:24:43.497Z,7.63
2023-02-25T00:27:12.314Z,7.45
2023-02-25T00:29:42.093Z,7.64
2023-02-25T00:32:15.567Z,7.62
2023-02-25T00:34:47.503Z,7.35
2023-02-25T00:37:18.344Z,7.84
2023-02-25T00:39:47.113Z,7.72
2023-02-25T00:42:17.304Z,7.65
2023-02-25T00:44:47.348Z,7.36
2023-02-25T00:47:17.889Z,7.36
2023-02-25T00:49:50.841Z,7.80
2023-02-25T00:52:20.293Z,7.33
2023-02-25T00:54:49.115Z,7.20
2023-02-25T00:57:18.006Z,7.37
2023-02-25T00:59:46.476Z,7.56
2023-02-25T01:02:15.987Z,7.76
2023-02-25T01:04:44.783Z,7.51
2023-02-25T01:07:18.079Z,7.88
2023-02-25T01:09:47.825Z,7.34
2023-02-25T01:12:16.580Z,7.02
2023-02-25T01:14:45.577Z,7.66
2023-02-25T01:17:13.898Z,7.09
2023-02-25T01:19:45.819Z,7.20
2023-02-25T01:22:17.382Z,7.07
2023-02-25T01:24:47.720Z,7.24
2023-02-25T01:27:16.250Z,7.60
2023-02-25T01:29:45.482Z,7.71
2023-02-25T01:32:16.248Z,7.57
2023-02-25T01:34:45.597Z,7.69
2023-02-25T01:37:16.428Z,7.27
2023-02-25T01:39:45.656Z,7.50
2023-02-25T01:42:16.251Z,7.58
2023-02-25T01:45:25.064Z,7.59
2023-02-25T01:47:58.269Z,7.60
2023-02-25T01:50:30.645Z,7.87
2023-02-25T01:53:02.136Z,7.80
2023-02-25T01:55:30.626Z,7.81
2023-02-25T01:57:59.977Z,7.63
2023-02-25T02:00:28.909Z,7.95
2023-02-25T02:02:59.070Z,7.57
2023-02-25T02:05:39.243Z,7.94
2023-02-25T02:08:10.690Z,7.60
2023-02-25T02:10:40.512Z,7.81
2023-02-25T02:13:13.418Z,7.69
2023-02-25T02:15:49.605Z,7.71
2023-02-25T02:18:22.177Z,7.44
2023-02-25T02:21:02.989Z,7.68
2023-02-25T02:23:50.334Z,8.03
2023-02-25T02:26:39.627Z,7.86
2023-02-25T02:29:38.398Z,7.84
2023-02-25T02:32:18.372Z,7.81
2023-02-25T02:34:53.561Z,7.58
2023-02-25T02:37:35.389Z,7.97
2023-02-25T02:40:15.941Z,7.22
2023-02-25T02:42:49.736Z,7.43
2023-02-25T02:45:23.433Z,7.22
2023-02-25T02:47:56.205Z,7.66
2023-02-25T02:50:31.112Z,7.50
2023-02-25T02:53:05.739Z,7.71
2023-02-25T02:55:38.043Z,7.41
2023-02-25T02:58:10.717Z,7.93
2023-02-25T03:00:45.124Z,8.06
2023-02-25T03:03:19.006Z,7.66
2023-02-25T03:05:51.890Z,8.12
2023-02-25T03:08:24.421Z,7.99
2023-02-25T03:10:55.715Z,7.91
2023-02-25T03:13:24.408Z,8.15
2023-02-25T03:15:55.662Z,7.66
2023-02-25T03:18:39.123Z,7.77
2023-02-25T03:21:14.820Z,7.36
2023-02-25T03:23:49.482Z,7.22
2023-02-25T03:26:23.506Z,7.81
2023-02-25T03:28:55.582Z,7.71
2023-02-25T03:31:29.699Z,7.76
2023-02-25T03:34:07.068Z,7.75
2023-02-25T03:36:39.097Z,7.33
2023-02-25T03:39:12.742Z,7.43
2023-02-25T03:41:45.480Z,7.53
2023-02-25T03:44:17.542Z,7.26
2023-02-25T03:46:48.812Z,7.18
2023-02-25T03:49:30.577Z,7.11
2023-02-25T03:52:02.567Z,7.02
2023-02-25T03:54:33.368Z,7.05
2023-02-25T03:57:04.446Z,7.28
2023-02-25T03:59:33.533Z,6.94
2023-02-25T04:02:03.400Z,7.27
2023-02-25T04:04:34.989Z,7.36
2023-02-25T04:07:05.308Z,6.95
2023-02-25T04:09:34.700Z,6.91
2023-02-25T04:12:04.849Z,7.19
2023-02-25T04:14:33.397Z,7.12
2023-02-25T04:17:05.317Z,6.95
2023-02-25T04:19:37.772Z,6.86
2023-02-25T04:22:08.462Z,7.31
2023-02-25T04:24:37.757Z,7.52
2023-02-25T04:27:08.970Z,7.08
2023-02-25T04:29:38.824Z,7.12
2023-02-25T04:32:07.655Z,7.21
2023-02-25T04:34:39.427Z,6.95
2023-02-25T04:37:09.490Z,7.05
2023-02-25T04:39:39.630Z,7.22
2023-02-25T04:42:10.890Z,7.34
2023-02-25T04:44:40.856Z,7.09
2023-02-25T04:47:09.861Z,7.25
2023-02-25T04:49:46.437Z,7.08
2023-02-25T04:52:19.241Z,7.01
2023-02-25T04:54:48.735Z,7.41
2023-02-25T04:57:40.050Z,7.02
2023-02-25T05:00:16.102Z,7.08
2023-02-25T05:02:47.221Z,7.04
2023-02-25T05:05:18.704Z,6.96
2023-02-25T05:07:48.520Z,7.45
2023-02-25T05:10:19.848Z,6.83
2023-02-25T05:12:49.062Z,7.09
2023-02-25T05:15:22.315Z,7.30
2023-02-25T05:17:51.027Z,7.06
2023-02-25T05:20:23.354Z,6.97
2023-02-25T05:22:52.813Z,7.28
2023-02-25T05:25:26.900Z,7.16
2023-02-25T05:27:55.739Z,7.15
2023-02-25T05:30:28.762Z,6.95
2023-02-25T05:32:57.348Z,7.34
2023-02-25T05:35:32.695Z,7.13
2023-02-25T05:38:02.852Z,7.33
2023-02-25T05:40:36.935Z,7.55
2023-02-25T05:43:07.890Z,7.15
2023-02-25T05:45:38.052Z,7.27
2023-02-25T05:48:07.576Z,7.14
2023-02-25T05:50:41.945Z,7.19
2023-02-25T05:53:14.378Z,7.22
2023-02-25T05:55:47.257Z,7.04
2023-02-25T05:58:16.006Z,7.27
2023-02-25T06:00:47.389Z,7.37
2023-02-25T06:03:16.656Z,7.39
2023-02-25T06:06:15.785Z,7.38
2023-02-25T06:08:46.637Z,7.23
2023-02-25T06:11:19.546Z,7.17
2023-02-25T06:13:52.703Z,7.64
2023-02-25T06:16:22.844Z,7.41
2023-02-25T06:18:53.350Z,7.69
2023-02-25T06:21:26.661Z,7.22
2023-02-25T06:23:55.924Z,7.46
2023-02-25T06:26:24.736Z,7.55
2023-02-25T06:28:55.459Z,7.46
2023-02-25T06:31:27.131Z,7.56
2023-02-25T06:33:57.608Z,7.70
2023-02-25T06:36:31.637Z,7.53
2023-02-25T06:39:02.286Z,7.81
2023-02-25T06:41:31.390Z,7.37
2023-02-25T06:44:05.876Z,7.62
2023-02-25T06:46:34.965Z,7.84
2023-02-25T06:49:05.063Z,7.72
2023-02-25T06:51:35.621Z,7.87
2023-02-25T06:54:07.535Z,7.62
2023-02-25T06:56:35.997Z,7.68
2023-02-25T06:59:05.204Z,7.71
2023-02-25T07:01:35.218Z,7.85
2023-02-25T07:04:04.033Z,8.03
2023-02-25T07:06:34.029Z,8.07
2023-02-25T07:09:05.215Z,8.06
2023-02-25T07:11:36.518Z,8.21
2023-02-25T07:14:20.252Z,8.19
2023-02-25T07:16:49.696Z,8.10
2023-02-25T07:19:19.553Z,8.23
2023-02-25T07:21:50.162Z,8.02
2023-02-25T07:24:24.148Z,8.02
2023-02-25T07:26:54.229Z,8.15
2023-02-25T07:29:26.303Z,8.19
2023-02-25T07:31:58.163Z,8.35
2023-02-25T07:34:31.587Z,8.29
2023-02-25T07:37:08.849Z,8.50
2023-02-25T07:39:40.326Z,8.12
2023-02-25T07:42:11.033Z,8.05
2023-02-25T07:44:40.023Z,7.95
2023-02-25T07:47:09.528Z,8.13
2023-02-25T07:49:38.015Z,8.26
2023-02-25T07:52:07.894Z,8.11
2023-02-25T07:54:37.075Z,8.44
2023-02-25T07:57:08.602Z,8.42
2023-02-25T07:59:37.304Z,8.22
2023-02-25T08:02:10.402Z,8.05
2023-02-25T08:04:39.658Z,8.28
2023-02-25T08:07:10.043Z,7.94
2023-02-25T08:09:38.757Z,8.00
2023-02-25T08:12:13.256Z,7.84
2023-02-25T08:14:41.858Z,8.17
2023-02-25T08:17:15.188Z,8.27
2023-02-25T08:19:43.731Z,8.12
2023-02-25T08:22:13.332Z,7.95
2023-02-25T08:24:44.569Z,8.43
2023-02-25T08:27:15.262Z,8.20
2023-02-25T08:29:43.750Z,8.41
2023-02-25T08:32:14.295Z,8.64
2023-02-25T08:34:43.358Z,8.55
2023-02-25T08:37:13.811Z,8.40
2023-02-25T08:39:43.810Z,8.40
2023-02-25T08:42:25.444Z,8.46
2023-02-25T08:44:56.763Z,8.41
2023-02-25T08:47:26.578Z,8.76
2023-02-25T08:49:56.251Z,8.80
2023-02-25T08:52:25.709Z,9.06
2023-02-25T08:55:00.007Z,9.00
2023-02-25T08:57:49.643Z,9.48
2023-02-25T09:00:23.477Z,9.42
2023-02-25T09:03:03.542Z,10.02
2023-02-25T09:05:53.541Z,10.04
2023-02-25T09:11:41.158Z,9.10
2023-02-25T09:14:14.861Z,9.37
2023-02-25T09:16:46.642Z,9.42
2023-02-25T09:19:22.040Z,9.46
2023-02-25T09:21:52.262Z,9.06
2023-02-25T09:24:21.133Z,9.11
2023-02-25T09:26:52.638Z,9.25
2023-02-25T09:29:22.025Z,9.54
2023-02-25T09:31:54.506Z,9.48
2023-02-25T09:34:23.411Z,9.23
2023-02-25T09:36:54.302Z,9.13
2023-02-25T09:39:27.322Z,9.50
2023-02-25T09:42:01.142Z,9.63
2023-02-25T09:44:34.923Z,9.55
2023-02-25T09:47:28.513Z,9.82
2023-02-25T09:50:08.035Z,9.55
2023-02-25T09:52:43.449Z,9.67
2023-02-25T09:55:22.751Z,9.58
2023-02-25T09:57:59.556Z,9.37
2023-02-25T10:00:29.969Z,10.17
2023-02-25T10:03:09.059Z,10.31
2023-02-25T10:05:44.348Z,10.24
2023-02-25T10:08:19.632Z,10.18
2023-02-25T10:10:59.032Z,9.80
2023-02-25T10:13:36.917Z,9.67
2023-02-25T10:16:13.526Z,10.10
2023-02-25T10:19:01.887Z,10.31
2023-02-25T10:21:44.487Z,10.87
2023-02-25T10:24:25.729Z,10.36
2023-02-25T10:26:59.976Z,10.08
2023-02-25T10:29:35.092Z,9.86
2023-02-25T10:32:21.323Z,9.31
2023-02-25T10:34:55.441Z,9.29
2023-02-25T10:37:28.879Z,9.42
2023-02-25T10:40:03.447Z,9.53
2023-02-25T10:42:35.687Z,9.54
2023-02-25T10:45:09.404Z,9.99
2023-02-25T10:47:43.067Z,9.98
2023-02-25T10:50:19.951Z,10.07
2023-02-25T10:52:58.869Z,10.57
2023-02-25T10:55:40.802Z,10.57
2023-02-25T10:58:27.439Z,10.40
2023-02-25T11:01:01.233Z,10.75
2023-02-25T11:03:36.187Z,10.73
2023-02-25T11:06:23.265Z,10.43
2023-02-25T11:08:54.825Z,10.99
2023-02-25T11:11:28.255Z,10.51
2023-02-25T11:14:03.816Z,10.79
2023-02-25T11:16:35.245Z,11.15
2023-02-25T11:19:15.948Z,11.15
2023-02-25T11:21:46.290Z,11.89
2023-02-25T11:24:17.612Z,12.54
2023-02-25T11:26:48.454Z,12.00
2023-02-25T11:29:21.027Z,12.23
2023-02-25T11:31:58.025Z,12.95
2023-02-25T11:34:29.814Z,12.79
2023-02-25T11:37:16.669Z,13.14
2023-02-25T11:39:53.763Z,12.87
2023-02-25T11:42:25.611Z,12.59
2023-02-25T11:45:01.867Z,13.52
2023-02-25T11:47:32.807Z,13.32
2023-02-25T11:50:15.911Z,13.25
2023-02-25T11:52:50.421Z,13.27
2023-02-25T11:56:03.319Z,12.52
2023-02-25T11:58:44.609Z,12.62
2023-02-25T12:01:31.990Z,13.05
2023-02-25T12:04:49.099Z,12.64
2023-02-25T12:08:12.063Z,12.84
2023-02-25T12:11:30.502Z,12.33
2023-02-25T12:14:36.738Z,12.29
2023-02-25T12:17:57.905Z,12.68
2023-02-25T12:21:12.269Z,12.57
2023-02-25T12:24:32.772Z,12.89
2023-02-25T12:27:33.230Z,12.52
2023-02-25T12:30:21.212Z,12.48
2023-02-25T12:33:04.180Z,12.82
2023-02-25T12:35:57.960Z,12.46
2023-02-25T12:39:12.206Z,12.16
2023-02-25T12:41:49.264Z,12.26
2023-02-25T12:44:51.138Z,12.32
2023-02-25T12:50:52.869Z,12.36
2023-02-25T12:53:32.550Z,12.35
2023-02-25T12:56:26.306Z,12.82
2023-02-25T12:59:22.669Z,12.48
2023-02-25T13:02:02.177Z,12.45
2023-02-25T13:04:50.142Z,12.66
2023-02-25T13:07:54.214Z,12.39
2023-02-25T13:10:35.612Z,12.12
2023-02-25T13:13:26.755Z,12.69
2023-02-25T13:16:04.951Z,12.81
2023-02-25T13:18:42.747Z,12.66
2023-02-25T13:21:39.958Z,12.58
2023-02-25T13:24:20.584Z,12.54
2023-02-25T13:27:07.311Z,13.06
2023-02-25T13:30:05.977Z,12.35
2023-02-25T13:32:40.039Z,12.39
2023-02-25T13:35:26.988Z,13.02
2023-02-25T13:38:06.586Z,12.95
2023-02-25T13:40:51.960Z,12.88
2023-02-25T13:43:49.914Z,12.86
2023-02-25T13:46:37.258Z,12.57
2023-02-25T13:49:36.087Z,12.63
2023-02-25T13:52:23.644Z,12.49
2023-02-25T13:55:30.340Z,12.83
2023-02-25T13:58:25.001Z,13.05
2023-02-25T14:01:30.251Z,12.39
2023-02-25T14:04:21.888Z,12.67
2023-02-25T14:07:15.697Z,12.64
2023-02-25T14:09:51.495Z,12.84
2023-02-25T14:12:34.551Z,13.21
2023-02-25T14:15:21.592Z,13.33
2023-02-25T14:18:23.832Z,13.06
2023-02-25T14:21:03.031Z,13.22
2023-02-25T14:23:44.451Z,12.48
2023-02-25T14:26:25.370Z,12.15
2023-02-25T14:29:07.969Z,12.68
2023-02-25T14:31:54.482Z,12.47
2023-02-25T14:34:39.889Z,13.11
2023-02-25T14:37:40.226Z,12.49
2023-02-25T14:40:32.779Z,12.16
2023-02-25T14:43:33.197Z,12.18
2023-02-25T14:46:10.403Z,12.24
2023-02-25T14:48:46.115Z,11.98
2023-02-25T14:51:41.672Z,12.48
2023-02-25T14:54:38.592Z,12.44
2023-02-25T14:57:41.740Z,12.24
2023-02-25T15:00:51.643Z,12.10
2023-02-25T15:03:58.430Z,11.36
2023-02-25T15:06:48.367Z,11.40
2023-02-25T15:09:44.770Z,11.09
2023-02-25T15:12:43.175Z,11.05
2023-02-25T15:15:31.902Z,11.65
2023-02-25T15:18:28.556Z,11.30
2023-02-25T15:20:59.867Z,11.36
2023-02-25T15:23:50.657Z,11.48
2023-02-25T15:26:26.341Z,11.73
2023-02-25T15:28:56.007Z,11.87
2023-02-25T15:31:33.147Z,12.43
2023-02-25T15:34:41.448Z,12.16
2023-02-25T15:37:22.987Z,12.36
2023-02-25T15:39:56.240Z,12.31
2023-02-25T15:42:47.204Z,12.66
2023-02-25T15:45:39.735Z,12.43
2023-02-25T15:48:38.136Z,12.54
2023-02-25T15:51:11.840Z,12.10
2023-02-25T15:54:02.650Z,12.11
2023-02-25T15:56:50.423Z,11.82
2023-02-25T15:59:42.036Z,12.14
2023-02-25T16:02:41.660Z,11.33
2023-02-25T16:05:23.643Z,11.83
2023-02-25T16:08:03.926Z,11.22
2023-02-25T16:10:56.972Z,11.71
2023-02-25T16:13:31.288Z,11.29
2023-02-25T16:16:02.442Z,11.37
2023-02-25T16:18:36.945Z,11.18
2023-02-25T16:21:07.948Z,10.68
2023-02-25T16:23:41.784Z,10.94
2023-02-25T16:26:20.118Z,10.19
2023-02-25T16:28:55.953Z,10.64
2023-02-25T16:31:27.897Z,10.03
2023-02-25T16:33:59.753Z,10.01
2023-02-25T16:36:34.447Z,10.08
2023-02-25T16:39:06.910Z,10.22
2023-02-25T16:41:38.951Z,10.13
2023-02-25T16:44:08.211Z,9.76
2023-02-25T16:46:39.222Z,9.84
2023-02-25T16:49:11.286Z,9.23
2023-02-25T16:51:41.370Z,9.44
2023-02-25T16:54:11.828Z,9.24
2023-02-25T16:56:44.379Z,8.94
2023-02-25T16:59:18.890Z,8.92
2023-02-25T17:01:50.541Z,8.76
2023-02-25T17:04:20.982Z,9.15
2023-02-25T17:07:13.562Z,8.93
2023-02-25T17:09:46.828Z,8.67
2023-02-25T17:12:21.095Z,8.63
2023-02-25T17:14:52.588Z,8.73
2023-02-25T17:17:25.479Z,8.78
2023-02-25T17:19:54.510Z,8.42
2023-02-25T17:22:25.009Z,8.45
2023-02-25T17:25:00.334Z,8.21
2023-02-25T17:27:30.544Z,8.29
2023-02-25T17:30:07.219Z,8.33
2023-02-25T17:32:36.185Z,8.56
2023-02-25T17:35:06.233Z,8.01
2023-02-25T17:37:35.259Z,7.81
2023-02-25T17:40:04.726Z,8.20
2023-02-25T17:42:35.933Z,7.66
2023-02-25T17:45:07.431Z,8.16
2023-02-25T17:47:38.124Z,7.98
2023-02-25T17:50:22.220Z,8.11
2023-02-25T17:52:50.494Z,8.07
2023-02-25T17:55:26.956Z,8.15
2023-02-25T17:57:59.919Z,7.83
2023-02-25T18:00:32.928Z,7.80
2023-02-25T18:03:18.221Z,7.99
2023-02-25T18:05:52.733Z,7.88
2023-02-25T18:08:22.732Z,8.00
2023-02-25T18:10:59.271Z,7.96
2023-02-25T18:13:35.335Z,7.61
2023-02-25T18:16:30.486Z,7.92
2023-02-25T18:18:59.970Z,7.87
2023-02-25T18:21:30.581Z,7.34
2023-02-25T18:24:00.605Z,7.90
2023-02-25T18:26:30.556Z,7.41
2023-02-25T18:29:00.524Z,7.91
2023-02-25T18:31:29.233Z,8.12
2023-02-25T18:33:57.638Z,8.00
2023-02-25T18:36:28.993Z,8.02
2023-02-25T18:39:04.772Z,7.83
2023-02-25T18:41:35.544Z,7.65
2023-02-25T18:44:08.768Z,7.75
2023-02-25T18:46:37.409Z,7.37
2023-02-25T18:49:05.984Z,7.74
2023-02-25T18:51:36.711Z,7.63
2023-02-25T18:54:05.718Z,7.80
2023-02-25T18:56:34.550Z,7.74
2023-02-25T18:59:02.767Z,7.58
2023-02-25T19:01:35.073Z,7.36
2023-02-25T19:04:04.987Z,7.54
2023-02-25T19:06:34.657Z,7.58
2023-02-25T19:09:03.715Z,7.59
2023-02-25T19:11:36.876Z,7.53
2023-02-25T19:14:05.890Z,7.71
2023-02-25T19:16:38.211Z,7.62
2023-02-25T19:19:06.733Z,7.81
2023-02-25T19:21:35.233Z,7.58
2023-02-25T19:24:03.572Z,7.87
2023-02-25T19:26:31.917Z,7.67
2023-02-25T19:29:00.684Z,7.78
2023-02-25T19:31:30.159Z,7.57
2023-02-25T19:34:00.237Z,7.81
2023-02-25T19:36:30.231Z,7.71
2023-02-25T19:38:58.583Z,7.86
2023-02-25T19:41:27.222Z,7.74
2023-02-25T19:43:55.624Z,7.65
2023-02-25T19:46:24.283Z,7.74
2023-02-25T19:49:09.537Z,7.73
2023-02-25T19:51:38.709Z,7.63
2023-02-25T19:54:07.197Z,7.63
2023-02-25T19:56:36.004Z,7.40
2023-02-25T19:59:04.445Z,7.29
2023-02-25T20:01:33.547Z,7.33
2023-02-25T20:04:02.567Z,7.06
2023-02-25T20:06:44.756Z,7.11
2023-02-25T20:09:16.609Z,7.23
2023-02-25T20:11:46.610Z,7.02
2023-02-25T20:14:15.068Z,6.94
2023-02-25T20:16:43.529Z,7.04
2023-02-25T20:19:15.102Z,7.12
2023-02-25T20:21:47.713Z,7.16
2023-02-25T20:24:16.341Z,7.01
2023-02-25T20:26:44.954Z,6.97
2023-02-25T20:29:13.364Z,6.83
2023-02-25T20:31:44.289Z,6.98
2023-02-25T20:34:18.009Z,6.66
2023-02-25T20:36:55.080Z,6.70
2023-02-25T20:39:43.883Z,6.75
2023-02-25T20:42:14.303Z,6.60
2023-02-25T20:44:43.005Z,6.61
2023-02-25T20:47:17.909Z,6.54
2023-02-25T20:49:46.785Z,6.81
2023-02-25T20:52:19.013Z,6.52
2023-02-25T20:54:49.876Z,6.67
2023-02-25T20:57:21.532Z,6.66
2023-02-25T20:59:50.886Z,6.52
2023-02-25T21:02:19.648Z,6.61
2023-02-25T21:04:48.163Z,6.80
2023-02-25T21:07:19.967Z,6.74
2023-02-25T21:09:48.345Z,6.84
2023-02-25T21:12:16.662Z,6.70
2023-02-25T21:14:45.165Z,6.51
2023-02-25T21:17:14.638Z,6.55
2023-02-25T21:19:44.054Z,6.48
2023-02-25T21:22:12.563Z,6.74
2023-02-25T21:24:42.694Z,6.62
2023-02-25T21:27:12.338Z,6.44
2023-02-25T21:29:42.220Z,6.58
2023-02-25T21:32:10.678Z,6.63
2023-02-25T21:34:40.036Z,6.48
2023-02-25T21:37:08.355Z,6.56
2023-02-25T21:39:37.029Z,6.96
2023-02-25T21:42:07.148Z,6.62
2023-02-25T21:44:35.728Z,6.49
2023-02-25T21:47:04.034Z,6.65
2023-02-25T21:49:32.752Z,6.86
2023-02-25T21:52:01.661Z,6.72
2023-02-25T21:54:30.036Z,6.74
2023-02-25T21:57:00.458Z,6.72
2023-02-25T21:59:30.889Z,6.65
2023-02-25T22:01:59.407Z,6.53
2023-02-25T22:04:28.534Z,6.70
2023-02-25T22:06:57.329Z,6.52
2023-02-25T22:09:26.047Z,6.55
2023-02-25T22:11:55.591Z,6.65
2023-02-25T22:14:26.460Z,6.27
2023-02-25T22:16:56.461Z,6.40
2023-02-25T22:19:25.460Z,6.47
2023-02-25T22:21:54.294Z,6.38
2023-02-25T22:24:22.864Z,6.74
2023-02-25T22:26:52.818Z,6.56
2023-02-25T22:29:21.472Z,6.47
2023-02-25T22:31:50.235Z,6.55
2023-02-25T22:34:20.017Z,6.71
2023-02-25T22:36:48.575Z,6.49
2023-02-25T22:39:17.257Z,6.42
2023-02-25T22:41:46.388Z,6.46
2023-02-25T22:44:14.704Z,6.30
2023-02-25T22:46:43.150Z,6.48
2023-02-25T22:49:12.853Z,6.37
2023-02-25T22:51:45.005Z,6.53
2023-02-25T22:54:14.986Z,6.61
2023-02-25T22:56:44.113Z,6.80
2023-02-25T22:59:12.990Z,6.72
2023-02-25T23:01:42.780Z,6.48
2023-02-25T23:04:11.067Z,6.59
2023-02-25T23:06:46.313Z,6.75
2023-02-25T23:09:16.809Z,6.72
2023-02-25T23:12:00.088Z,6.93
2023-02-25T23:14:29.377Z,6.78
2023-02-25T23:16:57.860Z,7.14
2023-02-25T23:19:26.226Z,7.03
2023-02-25T23:21:57.480Z,7.08
2023-02-25T23:24:37.414Z,6.90
2023-02-25T23:27:06.035Z,7.09
2023-02-25T23:29:35.148Z,7.14
2023-02-25T23:32:06.140Z,7.13
2023-02-25T23:39:48.135Z,7.23
2023-02-25T23:42:16.958Z,7.48
2023-02-25T23:44:47.229Z,7.29
2023-02-25T23:47:17.905Z,7.22
2023-02-25T23:49:46.790Z,7.25
2023-02-25T23:52:16.558Z,7.38
2023-02-25T23:54:49.430Z,7.34
2023-02-25T23:57:19.063Z,7.09
2023-02-25T23:59:52.158Z,7.12
